Time;durP1;ratioP1;P1;durP2;ratioP2;P2;SDS_P1;SDS_P2;PMS_P1;PMS_P2;Temp;Humidity;BMP_temperature;BMP_pressure;BME280_temperature;BME280_humidity;BME280_pressure;Samples;Min_cycle;Max_cycle;Signal;HPM_P1;HPM_P2
2022/03/20 00:00:39;;;;;;;33.85;23.13;;;12.70;62.40;;;;;;5040036;28;20374;-54
2022/03/20 00:03:07;;;;;;;36.08;23.83;;;12.70;63.70;;;;;;5039984;28;20028;-54
2022/03/20 00:05:38;;;;;;;34.40;23.58;;;12.60;63.50;;;;;;5040212;28;20026;-54
2022/03/20 00:08:09;;;;;;;37.45;25.13;;;12.60;62.90;;;;;;5039029;28;20039;-54
2022/03/20 00:10:48;;;;;;;35.08;24.60;;;12.60;63.40;;;;;;5040129;28;20049;-53
2022/03/20 00:13:17;;;;;;;33.53;23.58;;;12.60;63.50;;;;;;5039695;28;20493;-52
2022/03/20 00:15:46;;;;;;;37.05;24.98;;;12.60;63.20;;;;;;5040388;28;20034;-52
2022/03/20 00:18:16;;;;;;;32.50;23.17;;;12.50;63.10;;;;;;5039873;28;20037;-50
2022/03/20 00:20:48;;;;;;;34.22;23.48;;;12.50;62.90;;;;;;5039959;28;20022;-54
2022/03/20 00:23:16;;;;;;;34.40;23.55;;;12.50;63.70;;;;;;5039725;28;20021;-54
2022/03/20 00:25:44;;;;;;;34.78;22.60;;;12.50;64.10;;;;;;5039309;28;20053;-51
2022/03/20 00:28:11;;;;;;;32.85;21.92;;;12.50;63.90;;;;;;5039716;28;20037;-53
2022/03/20 00:30:37;;;;;;;34.75;22.60;;;12.40;63.00;;;;;;5039593;28;20045;-53
2022/03/20 00:33:03;;;;;;;34.45;23.20;;;12.40;63.70;;;;;;5039536;28;20034;-51
2022/03/20 00:35:30;;;;;;;33.17;22.67;;;12.40;62.90;;;;;;5039642;28;20112;-53
2022/03/20 00:37:56;;;;;;;30.85;22.05;;;12.30;63.40;;;;;;5039829;28;20036;-55
2022/03/20 00:40:22;;;;;;;33.95;22.13;;;12.40;63.40;;;;;;5039443;28;20029;-55
2022/03/20 00:42:48;;;;;;;29.58;22.20;;;12.30;63.60;;;;;;5039554;28;20021;-53
2022/03/20 00:45:14;;;;;;;31.02;21.42;;;12.30;62.70;;;;;;5039765;28;20026;-55
2022/03/20 00:47:40;;;;;;;31.70;21.92;;;12.30;64.20;;;;;;5039524;28;20361;-53
2022/03/20 00:50:07;;;;;;;34.05;21.70;;;12.30;63.10;;;;;;5039535;28;20100;-52
2022/03/20 00:52:34;;;;;;;32.65;22.55;;;12.30;63.80;;;;;;5039369;28;20029;-55
2022/03/20 00:55:00;;;;;;;30.90;21.17;;;12.30;63.50;;;;;;5039276;28;20032;-54
2022/03/20 00:57:26;;;;;;;31.83;21.75;;;12.30;64.30;;;;;;5039063;28;20022;-55
2022/03/20 00:59:52;;;;;;;30.50;21.83;;;12.30;63.80;;;;;;5039276;28;20366;-54
2022/03/20 01:02:18;;;;;;;30.05;20.85;;;12.30;63.80;;;;;;5039332;28;20515;-55
2022/03/20 01:04:44;;;;;;;32.83;21.73;;;12.20;63.20;;;;;;5039385;28;20032;-56
2022/03/20 01:07:10;;;;;;;32.22;21.50;;;12.20;63.70;;;;;;5038910;28;20025;-54
2022/03/20 01:09:36;;;;;;;33.40;21.58;;;12.20;63.20;;;;;;5038609;28;20030;-53
2022/03/20 01:12:04;;;;;;;30.20;18.83;;;12.20;64.00;;;;;;5038951;28;20075;-54
2022/03/20 01:14:30;;;;;;;32.75;21.58;;;12.20;63.00;;;;;;5038755;28;20033;-52
2022/03/20 01:16:56;;;;;;;32.63;22.38;;;12.20;64.00;;;;;;5038899;28;20025;-53
2022/03/20 01:19:23;;;;;;;30.08;21.10;;;12.20;63.40;;;;;;5038585;28;20583;-54
2022/03/20 01:21:49;;;;;;;32.90;22.17;;;12.20;63.30;;;;;;5038612;28;20025;-53
2022/03/20 01:24:15;;;;;;;32.78;21.88;;;12.20;63.30;;;;;;5038555;28;20405;-51
2022/03/20 01:26:41;;;;;;;34.38;23.17;;;12.20;63.20;;;;;;5038889;28;20025;-55
2022/03/20 01:29:07;;;;;;;30.35;20.73;;;12.10;62.70;;;;;;5038269;28;20551;-55
2022/03/20 01:31:34;;;;;;;31.75;21.45;;;12.10;63.30;;;;;;5038676;28;20435;-53
2022/03/20 01:34:01;;;;;;;31.42;22.20;;;12.10;64.30;;;;;;5038646;28;20477;-53
2022/03/20 01:36:27;;;;;;;32.30;22.90;;;12.10;63.40;;;;;;5038349;28;20040;-52
2022/03/20 01:38:54;;;;;;;32.55;22.58;;;12.10;64.80;;;;;;5038654;28;20079;-51
2022/03/20 01:41:20;;;;;;;34.05;23.02;;;12.10;64.90;;;;;;5038072;28;20028;-51
2022/03/20 01:43:50;;;;;;;35.70;24.73;;;12.10;63.20;;;;;;5037986;28;20021;-53
2022/03/20 01:46:17;;;;;;;32.08;22.58;;;12.00;63.80;;;;;;5038276;28;20018;-55
2022/03/20 01:48:42;;;;;;;36.40;24.55;;;12.00;64.60;;;;;;5037947;28;20021;-56
2022/03/20 01:51:10;;;;;;;35.40;23.73;;;12.00;63.20;;;;;;5038197;28;20047;-54
2022/03/20 01:53:37;;;;;;;35.33;24.38;;;12.00;64.40;;;;;;5038053;28;20029;-51
2022/03/20 01:56:03;;;;;;;32.92;23.42;;;12.00;64.00;;;;;;5038273;28;20450;-55
2022/03/20 01:58:29;;;;;;;35.13;25.65;;;12.00;64.20;;;;;;5037937;28;20018;-54
2022/03/20 02:00:55;;;;;;;35.40;24.02;;;11.90;64.80;;;;;;5037879;28;20032;-52
2022/03/20 02:03:21;;;;;;;38.97;24.85;;;12.00;64.20;;;;;;5038298;28;20033;-52
2022/03/20 02:05:47;;;;;;;38.03;24.92;;;11.90;64.70;;;;;;5038078;28;20420;-53
2022/03/20 02:08:12;;;;;;;36.22;25.13;;;11.90;64.10;;;;;;5038091;28;20517;-54
2022/03/20 02:10:40;;;;;;;35.83;23.70;;;11.90;64.10;;;;;;5037725;28;20029;-55
2022/03/20 02:13:06;;;;;;;36.30;23.08;;;11.90;64.20;;;;;;5037711;28;20033;-52
2022/03/20 02:15:33;;;;;;;39.83;25.35;;;11.90;64.50;;;;;;5037809;28;20036;-53
2022/03/20 02:17:59;;;;;;;35.08;23.23;;;11.80;64.70;;;;;;5038088;28;20030;-52
2022/03/20 02:20:25;;;;;;;34.47;24.45;;;11.90;64.80;;;;;;5037832;28;20045;-55
2022/03/20 02:22:51;;;;;;;37.72;24.98;;;11.80;63.90;;;;;;5037399;28;20100;-52
2022/03/20 02:25:17;;;;;;;36.38;24.92;;;11.90;64.50;;;;;;5037465;28;20060;-53
2022/03/20 02:27:44;;;;;;;40.10;25.20;;;11.90;64.70;;;;;;5037913;28;20026;-52
2022/03/20 02:30:13;;;;;;;36.55;24.48;;;11.80;63.70;;;;;;5037079;28;20028;-55
2022/03/20 02:32:41;;;;;;;35.90;25.40;;;11.80;64.30;;;;;;5037448;28;20513;-54
2022/03/20 02:35:11;;;;;;;35.20;24.35;;;11.80;63.80;;;;;;5037280;28;20032;-54
2022/03/20 02:37:41;;;;;;;33.83;23.88;;;11.80;63.70;;;;;;5037560;28;20079;-54
2022/03/20 02:40:08;;;;;;;35.30;24.30;;;11.80;64.90;;;;;;5036250;28;20033;-54
2022/03/20 02:42:35;;;;;;;36.08;25.80;;;11.80;65.00;;;;;;5037299;28;20022;-52
2022/03/20 02:45:08;;;;;;;36.05;24.05;;;11.80;64.10;;;;;;5037514;28;20031;-54
2022/03/20 02:47:40;;;;;;;40.20;25.23;;;11.80;64.50;;;;;;5037278;28;20032;-54
2022/03/20 02:50:09;;;;;;;38.00;26.42;;;11.80;65.20;;;;;;5037488;28;20400;-53
2022/03/20 02:52:47;;;;;;;38.47;26.75;;;11.80;65.40;;;;;;5037583;28;20064;-51
2022/03/20 02:55:22;;;;;;;37.70;26.35;;;11.80;65.00;;;;;;5037617;28;20033;-52
2022/03/20 02:57:49;;;;;;;39.30;25.42;;;11.80;65.60;;;;;;5037394;28;20052;-54
2022/03/20 03:00:21;;;;;;;39.85;26.40;;;11.80;65.10;;;;;;5037396;28;20026;-53
2022/03/20 03:02:48;;;;;;;41.97;28.23;;;11.80;64.40;;;;;;5037363;28;20045;-52
2022/03/20 03:05:16;;;;;;;39.05;26.83;;;11.80;65.00;;;;;;5037091;28;20108;-51
2022/03/20 03:13:15;;;;;;;39.58;26.25;;;11.70;64.70;;;;;;5036861;28;20095;-53
2022/03/20 03:15:41;;;;;;;39.22;25.23;;;11.70;65.40;;;;;;5037152;28;20029;-54
2022/03/20 03:18:08;;;;;;;38.58;26.13;;;11.70;65.40;;;;;;5036985;28;20020;-52
2022/03/20 03:20:34;;;;;;;39.83;25.85;;;11.60;63.90;;;;;;5036955;28;20481;-53
2022/03/20 03:23:00;;;;;;;41.17;26.73;;;11.60;64.30;;;;;;5035507;28;20033;-54
2022/03/20 03:25:26;;;;;;;39.33;26.73;;;11.60;65.30;;;;;;5036635;28;20471;-52
2022/03/20 03:27:53;;;;;;;39.55;27.40;;;11.60;64.50;;;;;;5037229;28;20030;-52
2022/03/20 03:30:20;;;;;;;39.78;26.83;;;11.60;64.60;;;;;;5036821;28;20076;-52
2022/03/20 03:32:46;;;;;;;41.22;26.98;;;11.60;65.00;;;;;;5037132;28;20030;-49
2022/03/20 03:37:59;;;;;;;42.33;27.98;;;11.50;65.60;;;;;;5037075;28;20037;-54
2022/03/20 03:40:25;;;;;;;42.05;28.63;;;11.50;65.00;;;;;;5036896;28;20025;-53
2022/03/20 03:42:51;;;;;;;38.80;26.83;;;11.50;64.90;;;;;;5040263;28;20026;-55
2022/03/20 03:45:17;;;;;;;37.88;25.58;;;11.40;64.80;;;;;;5040448;28;20048;-53
2022/03/20 03:47:43;;;;;;;36.33;25.40;;;11.50;65.30;;;;;;5040610;28;20091;-53
2022/03/20 03:50:10;;;;;;;42.20;27.58;;;11.40;65.70;;;;;;5040564;28;20052;-55
2022/03/20 03:52:39;;;;;;;39.03;27.05;;;11.40;66.00;;;;;;5040307;28;20036;-51
2022/03/20 03:55:06;;;;;;;43.45;28.17;;;11.30;64.00;;;;;;5040222;28;20029;-51
2022/03/20 03:57:32;;;;;;;39.75;26.45;;;11.30;65.00;;;;;;5040161;28;20397;-52
2022/03/20 03:59:58;;;;;;;38.22;26.15;;;11.30;65.90;;;;;;5040567;28;20024;-53
2022/03/20 04:02:24;;;;;;;41.28;27.55;;;11.20;65.80;;;;;;5040129;28;20032;-54
2022/03/20 04:04:50;;;;;;;38.47;26.23;;;11.20;67.10;;;;;;5040591;28;20033;-54
2022/03/20 04:07:21;;;;;;;38.55;24.98;;;11.20;66.10;;;;;;5040251;28;20041;-54
2022/03/20 04:09:48;;;;;;;39.55;26.27;;;11.20;66.00;;;;;;5039795;28;20509;-53
2022/03/20 04:12:14;;;;;;;41.22;27.05;;;11.10;66.20;;;;;;5040338;28;20052;-53
2022/03/20 04:14:41;;;;;;;40.20;27.45;;;11.10;66.10;;;;;;5040091;28;20028;-52
2022/03/20 04:17:07;;;;;;;41.88;26.90;;;11.10;65.90;;;;;;5039662;28;20056;-51
2022/03/20 04:19:33;;;;;;;41.40;27.67;;;11.10;67.10;;;;;;5039583;28;20702;-55
2022/03/20 04:22:03;;;;;;;40.33;27.13;;;11.10;66.20;;;;;;5038297;28;20049;-54
2022/03/20 04:24:29;;;;;;;40.40;26.58;;;11.10;66.30;;;;;;5039802;28;20049;-53
2022/03/20 04:26:55;;;;;;;40.17;27.80;;;11.10;66.90;;;;;;5039696;28;20044;-49
2022/03/20 04:29:21;;;;;;;42.85;28.25;;;11.10;66.60;;;;;;5039476;28;20029;-52
2022/03/20 04:31:54;;;;;;;37.28;26.90;;;11.10;66.30;;;;;;5038325;28;20021;-53
2022/03/20 04:34:20;;;;;;;43.63;28.45;;;11.10;66.00;;;;;;5039949;28;20032;-54
2022/03/20 04:36:46;;;;;;;40.75;27.45;;;11.10;67.50;;;;;;5039499;28;20060;-54
2022/03/20 04:39:12;;;;;;;40.38;27.70;;;11.10;67.80;;;;;;5039670;28;20017;-54
2022/03/20 04:41:38;;;;;;;43.15;29.10;;;11.10;67.60;;;;;;5039769;28;20024;-54
2022/03/20 04:44:06;;;;;;;41.20;28.13;;;11.10;66.60;;;;;;5039340;28;20022;-53
2022/03/20 04:46:32;;;;;;;46.60;29.73;;;11.20;67.60;;;;;;5039221;28;20029;-53
2022/03/20 04:59:54;;;;;;;46.83;30.58;;;11.20;66.00;;;;;;5038967;28;20028;-54
2022/03/20 05:02:20;;;;;;;43.95;29.80;;;11.30;66.20;;;;;;5039340;28;20444;-51
2022/03/20 05:04:46;;;;;;;44.72;30.88;;;11.30;66.80;;;;;;5039169;28;20017;-55
2022/03/20 05:07:12;;;;;;;45.33;30.08;;;11.20;66.30;;;;;;5039143;28;20030;-54
2022/03/20 05:15:10;;;;;;;43.95;30.83;;;11.30;66.50;;;;;;5038869;28;20036;-50
2022/03/20 05:17:36;;;;;;;51.70;32.35;;;11.30;66.90;;;;;;5038819;28;20028;-55
2022/03/20 05:20:03;;;;;;;48.65;32.55;;;11.30;65.70;;;;;;5038730;28;20086;-55
2022/03/20 05:22:31;;;;;;;44.83;31.02;;;11.30;66.40;;;;;;5038853;28;20025;-53
2022/03/20 05:24:57;;;;;;;51.25;32.45;;;11.30;66.20;;;;;;5038452;28;20128;-52
2022/03/20 05:27:23;;;;;;;45.17;31.33;;;11.30;65.20;;;;;;5038733;28;20033;-55
2022/03/20 05:29:49;;;;;;;45.47;30.63;;;11.30;65.60;;;;;;5038657;28;20032;-53
2022/03/20 05:32:14;;;;;;;47.10;32.65;;;11.30;65.50;;;;;;5038685;28;20033;-52
2022/03/20 05:34:40;;;;;;;47.90;33.65;;;11.30;67.10;;;;;;5037236;28;20037;-52
2022/03/20 05:37:11;;;;;;;46.80;33.22;;;11.30;65.50;;;;;;5037109;28;20022;-55
2022/03/20 05:39:38;;;;;;;47.40;32.08;;;11.30;66.10;;;;;;5038182;28;20034;-55
2022/03/20 05:42:05;;;;;;;47.25;32.42;;;11.30;65.60;;;;;;5038510;28;20026;-54
2022/03/20 05:44:32;;;;;;;50.60;33.65;;;11.30;66.60;;;;;;5038716;28;20020;-51
2022/03/20 05:47:00;;;;;;;48.63;32.65;;;11.30;66.00;;;;;;5038584;28;20026;-52
2022/03/20 05:49:26;;;;;;;48.13;33.63;;;11.30;66.10;;;;;;5038195;28;20130;-55
2022/03/20 05:51:54;;;;;;;48.67;32.65;;;11.30;65.90;;;;;;5038154;28;20582;-54
2022/03/20 05:54:20;;;;;;;44.45;31.88;;;11.30;66.80;;;;;;5038152;28;20029;-55
2022/03/20 05:59:47;;;;;;;48.05;30.88;;;11.20;66.30;;;;;;5036080;28;20022;-53
2022/03/20 06:02:13;;;;;;;46.67;32.88;;;11.30;66.00;;;;;;5037477;28;20084;-51
2022/03/20 06:04:39;;;;;;;47.13;31.35;;;11.20;67.20;;;;;;5037032;28;20025;-53
2022/03/20 06:07:05;;;;;;;49.17;33.42;;;11.20;66.60;;;;;;5038034;28;20063;-51
2022/03/20 06:09:32;;;;;;;52.85;35.53;;;11.30;66.30;;;;;;5037875;28;20029;-54
2022/03/20 06:11:57;;;;;;;46.40;32.15;;;11.20;66.20;;;;;;5037791;28;20033;-54
2022/03/20 06:14:23;;;;;;;50.53;34.30;;;11.30;66.70;;;;;;5037887;28;20029;-53
2022/03/20 06:16:50;;;;;;;45.33;31.67;;;11.30;66.40;;;;;;5037644;28;20032;-55
2022/03/20 06:19:16;;;;;;;49.92;34.53;;;11.20;67.20;;;;;;5037707;28;20096;-54
2022/03/20 06:21:43;;;;;;;54.22;33.33;;;11.20;66.30;;;;;;5037651;28;20041;-55
2022/03/20 06:24:09;;;;;;;48.58;32.22;;;11.20;65.50;;;;;;5037419;28;20456;-51
2022/03/20 06:26:36;;;;;;;44.08;31.75;;;11.20;66.00;;;;;;5037976;28;20029;-54
2022/03/20 06:29:05;;;;;;;48.78;33.22;;;11.10;67.70;;;;;;5037481;28;20021;-51
2022/03/20 06:31:31;;;;;;;47.35;33.45;;;11.20;66.50;;;;;;5037686;28;20033;-50
2022/03/20 06:34:01;;;;;;;47.03;30.60;;;11.10;66.50;;;;;;5037414;28;20033;-53
2022/03/20 06:36:27;;;;;;;49.30;32.72;;;11.20;67.00;;;;;;5037570;28;20037;-53
2022/03/20 06:38:54;;;;;;;49.97;34.15;;;11.20;66.80;;;;;;5037406;28;20029;-52
2022/03/20 06:41:20;;;;;;;47.88;31.90;;;11.10;66.60;;;;;;5037547;28;20025;-51
2022/03/20 06:43:46;;;;;;;46.58;31.48;;;11.10;66.70;;;;;;5037581;28;20028;-54
2022/03/20 06:46:11;;;;;;;47.42;31.05;;;11.10;67.00;;;;;;5037791;28;20030;-50
2022/03/20 06:48:38;;;;;;;48.28;32.53;;;11.10;66.60;;;;;;5037432;28;20026;-53
2022/03/20 06:51:04;;;;;;;50.30;33.08;;;11.20;66.80;;;;;;5037413;28;20037;-53
2022/03/20 06:53:30;;;;;;;50.70;33.97;;;11.20;67.20;;;;;;5037416;28;20486;-52
2022/03/20 06:55:57;;;;;;;51.00;33.92;;;11.20;66.60;;;;;;5037397;28;20033;-54
2022/03/20 06:58:23;;;;;;;54.08;33.38;;;11.20;65.40;;;;;;5037456;28;20398;-54
2022/03/20 07:00:50;;;;;;;49.33;33.05;;;11.20;66.00;;;;;;5037404;28;20029;-53
2022/03/20 07:03:16;;;;;;;50.63;34.55;;;11.20;66.50;;;;;;5037088;28;20029;-52
2022/03/20 07:05:42;;;;;;;51.50;34.83;;;11.30;66.30;;;;;;5037061;28;20030;-51
2022/03/20 07:08:09;;;;;;;48.85;33.00;;;11.30;67.20;;;;;;5037362;28;20025;-53
2022/03/20 07:10:36;;;;;;;49.35;33.13;;;11.30;66.50;;;;;;5037145;28;20497;-53
2022/03/20 07:15:49;;;;;;;46.75;31.92;;;11.40;67.20;;;;;;5037425;28;20040;-55
2022/03/20 07:18:19;;;;;;;55.60;34.50;;;11.40;67.40;;;;;;5040921;28;20392;-54
2022/03/20 07:20:47;;;;;;;48.78;32.83;;;11.50;66.30;;;;;;5040795;28;20132;-49
2022/03/20 07:23:14;;;;;;;50.35;34.90;;;11.50;67.40;;;;;;5040953;28;20014;-52
2022/03/20 07:31:11;;;;;;;49.17;33.80;;;11.60;65.80;;;;;;5041028;28;20099;-54
2022/03/20 07:33:39;;;;;;;55.28;35.97;;;11.60;66.60;;;;;;5040731;28;20493;-51
2022/03/20 07:36:06;;;;;;;50.13;32.90;;;11.60;66.60;;;;;;5040739;28;20037;-55
2022/03/20 07:38:32;;;;;;;52.00;36.13;;;11.60;66.20;;;;;;5040624;28;20428;-55
2022/03/20 07:40:58;;;;;;;50.72;32.63;;;11.70;66.20;;;;;;5040824;28;20021;-54
2022/03/20 07:43:26;;;;;;;51.05;33.38;;;11.80;67.30;;;;;;5040569;28;20029;-55
2022/03/20 07:45:52;;;;;;;48.58;34.22;;;11.80;67.30;;;;;;5040745;28;20401;-56
2022/03/20 07:48:21;;;;;;;51.70;33.45;;;11.90;66.50;;;;;;5040468;28;20030;-54
2022/03/20 07:50:49;;;;;;;52.13;33.97;;;11.90;66.30;;;;;;5040669;28;20037;-55
2022/03/20 07:53:16;;;;;;;50.10;33.70;;;12.00;67.50;;;;;;5040316;28;20025;-53
2022/03/20 07:55:43;;;;;;;50.50;35.65;;;12.00;66.80;;;;;;5040068;28;20033;-55
2022/03/20 07:58:09;;;;;;;49.17;33.67;;;12.00;65.90;;;;;;5040260;28;20461;-54
2022/03/20 08:00:37;;;;;;;48.78;35.33;;;12.00;66.00;;;;;;5040728;28;20025;-55
2022/03/20 08:03:05;;;;;;;52.60;35.75;;;12.10;66.50;;;;;;5040294;28;20056;-53
2022/03/20 08:05:30;;;;;;;50.63;35.38;;;12.10;65.50;;;;;;5040202;28;20041;-55
2022/03/20 08:07:56;;;;;;;50.35;34.33;;;12.20;65.30;;;;;;5040197;28;20498;-54
2022/03/20 08:10:22;;;;;;;53.80;34.75;;;12.10;66.10;;;;;;5040264;28;20108;-54
2022/03/20 08:12:48;;;;;;;49.90;34.47;;;12.20;65.40;;;;;;5039369;28;20034;-55
2022/03/20 08:15:16;;;;;;;46.17;32.40;;;12.20;66.00;;;;;;5040192;28;20585;-54
2022/03/20 08:17:47;;;;;;;49.60;34.00;;;12.20;66.00;;;;;;5039824;28;20461;-51
2022/03/20 08:20:13;;;;;;;47.05;32.70;;;12.30;65.70;;;;;;5039632;28;20026;-54
2022/03/20 08:22:39;;;;;;;51.08;33.30;;;12.30;65.70;;;;;;5039789;28;20017;-54
2022/03/20 08:25:06;;;;;;;49.80;32.75;;;12.40;65.50;;;;;;5039574;28;20053;-53
2022/03/20 08:27:47;;;;;;;48.63;32.08;;;12.40;65.70;;;;;;5038851;28;20076;-53
2022/03/20 08:30:17;;;;;;;47.55;31.67;;;12.50;66.40;;;;;;5039701;28;20056;-54
2022/03/20 08:32:49;;;;;;;45.38;31.85;;;12.60;66.20;;;;;;5039913;28;20044;-56
2022/03/20 08:35:16;;;;;;;45.92;32.30;;;12.70;65.80;;;;;;5039495;28;20021;-56
2022/03/20 08:37:44;;;;;;;48.80;32.05;;;12.90;65.80;;;;;;5039514;28;20025;-55
2022/03/20 08:40:16;;;;;;;47.38;31.38;;;13.00;65.70;;;;;;5039681;28;20033;-55
2022/03/20 08:42:45;;;;;;;45.38;31.60;;;13.20;65.50;;;;;;5039553;28;20112;-53
2022/03/20 08:45:11;;;;;;;49.30;33.25;;;13.40;65.70;;;;;;5039449;28;20026;-55
2022/03/20 08:47:38;;;;;;;43.45;31.00;;;13.60;65.50;;;;;;5039316;28;20026;-54
2022/03/20 08:50:05;;;;;;;41.80;29.90;;;13.80;65.50;;;;;;5039064;28;20096;-55
2022/03/20 08:52:31;;;;;;;46.17;31.67;;;14.00;65.00;;;;;;5039453;28;20025;-55
2022/03/20 08:54:57;;;;;;;45.97;31.52;;;14.20;64.80;;;;;;5038811;28;20409;-54
2022/03/20 08:57:27;;;;;;;43.53;30.48;;;14.50;64.40;;;;;;5036940;28;20029;-56
2022/03/20 08:59:54;;;;;;;40.35;29.50;;;14.80;63.90;;;;;;5037449;28;20421;-54
2022/03/20 09:02:21;;;;;;;45.58;31.80;;;15.00;63.90;;;;;;5038117;28;20108;-56
2022/03/20 09:04:46;;;;;;;45.42;31.92;;;15.30;62.80;;;;;;5038409;28;20482;-54
2022/03/20 09:07:12;;;;;;;44.88;31.30;;;15.50;62.10;;;;;;5038638;28;20033;-56
2022/03/20 09:09:38;;;;;;;47.15;32.17;;;15.80;62.30;;;;;;5039286;28;20025;-55
2022/03/20 09:12:04;;;;;;;44.50;31.27;;;16.00;62.30;;;;;;5038862;28;20036;-56
2022/03/20 09:14:30;;;;;;;44.80;31.42;;;16.20;61.20;;;;;;5039089;28;20036;-55
2022/03/20 09:19:40;;;;;;;42.50;32.08;;;16.80;61.10;;;;;;5038734;28;20101;-53
2022/03/20 09:22:06;;;;;;;38.63;29.48;;;16.90;59.80;;;;;;5038599;28;20045;-54
2022/03/20 09:24:33;;;;;;;41.50;30.17;;;17.00;60.30;;;;;;5038394;28;20524;-55
2022/03/20 09:27:00;;;;;;;43.63;28.77;;;17.10;60.80;;;;;;5038555;28;20111;-54
2022/03/20 09:29:26;;;;;;;40.22;29.60;;;17.10;59.40;;;;;;5038376;28;20051;-56
2022/03/20 09:31:53;;;;;;;41.55;29.63;;;17.10;60.80;;;;;;5038544;28;20366;-54
2022/03/20 09:34:18;;;;;;;40.63;31.75;;;17.20;59.20;;;;;;5038428;28;20033;-54
2022/03/20 09:36:44;;;;;;;40.38;30.08;;;17.30;58.80;;;;;;5038287;28;20017;-54
2022/03/20 09:39:10;;;;;;;43.72;31.63;;;17.40;59.20;;;;;;5038183;28;20022;-54
2022/03/20 09:41:41;;;;;;;42.97;29.85;;;17.40;59.30;;;;;;5038252;28;20117;-54
2022/03/20 09:44:07;;;;;;;38.95;30.00;;;17.60;59.40;;;;;;5036664;28;20028;-56
2022/03/20 09:46:34;;;;;;;39.17;31.17;;;17.80;59.20;;;;;;5038238;28;20094;-56
2022/03/20 09:49:06;;;;;;;40.83;29.50;;;18.00;59.40;;;;;;5038495;28;20022;-56
2022/03/20 09:51:34;;;;;;;43.33;30.60;;;18.20;58.10;;;;;;5038452;28;20034;-57
2022/03/20 09:54:00;;;;;;;42.42;30.27;;;18.50;60.10;;;;;;5038162;28;20075;-45
2022/03/20 09:56:27;;;;;;;40.17;29.23;;;18.80;58.60;;;;;;5038114;28;20025;-50
2022/03/20 09:58:52;;;;;;;36.63;28.63;;;18.90;57.80;;;;;;5038145;28;20032;-52
2022/03/20 10:01:18;;;;;;;40.80;29.98;;;19.30;58.70;;;;;;5038181;28;20436;-52
2022/03/20 10:03:46;;;;;;;36.92;29.70;;;19.50;55.20;;;;;;5037900;28;20025;-50
2022/03/20 10:06:16;;;;;;;39.38;30.17;;;19.90;58.40;;;;;;5038375;28;20575;-50
2022/03/20 10:09:00;;;;;;;38.13;28.73;;;20.30;54.30;;;;;;5037934;28;20052;-54
2022/03/20 10:11:26;;;;;;;38.77;30.43;;;20.70;55.90;;;;;;5038040;28;20039;-52
2022/03/20 10:14:18;;;;;;;37.33;28.85;;;20.90;53.80;;;;;;5037932;28;20260;-51
2022/03/20 10:16:48;;;;;;;35.75;28.17;;;21.10;55.30;;;;;;5037712;28;20045;-52
2022/03/20 10:19:23;;;;;;;34.53;26.02;;;21.10;54.10;;;;;;5037758;28;20025;-52
2022/03/20 10:21:59;;;;;;;34.50;28.27;;;20.90;52.50;;;;;;5037827;28;20450;-51
2022/03/20 10:24:27;;;;;;;34.72;27.40;;;20.90;53.20;;;;;;5037652;28;20052;-47
2022/03/20 10:27:04;;;;;;;36.30;27.75;;;21.00;53.40;;;;;;5037549;28;20033;-47
2022/03/20 10:29:32;;;;;;;36.20;27.90;;;21.20;52.50;;;;;;5037366;28;20440;-48
2022/03/20 10:32:02;;;;;;;36.28;28.48;;;21.40;51.50;;;;;;5037435;28;20091;-49
2022/03/20 10:34:28;;;;;;;35.20;27.33;;;21.60;54.40;;;;;;5036018;28;20072;-47
2022/03/20 10:36:54;;;;;;;32.67;24.95;;;21.80;50.50;;;;;;5037477;28;20488;-47
2022/03/20 10:39:25;;;;;;;33.55;27.85;;;22.20;49.60;;;;;;5037237;28;20017;-50
2022/03/20 10:41:58;;;;;;;33.00;26.20;;;22.40;51.30;;;;;;5037438;28;20052;-47
2022/03/20 10:44:27;;;;;;;34.50;26.98;;;22.60;50.90;;;;;;5036291;28;20038;-48
2022/03/20 10:46:58;;;;;;;33.45;26.10;;;22.70;48.90;;;;;;5037854;28;20408;-48
2022/03/20 10:49:25;;;;;;;33.67;26.90;;;22.80;48.70;;;;;;5037577;28;20550;-48
2022/03/20 10:52:22;;;;;;;34.55;26.48;;;23.00;48.90;;;;;;5036979;28;20032;-47
2022/03/20 10:54:53;;;;;;;33.67;28.02;;;23.20;46.90;;;;;;5036366;28;20096;-48
2022/03/20 10:57:23;;;;;;;35.10;28.45;;;23.20;43.50;;;;;;5037457;28;20039;-47
2022/03/20 11:00:01;;;;;;;35.17;28.90;;;23.20;48.60;;;;;;5036751;28;20025;-51
2022/03/20 11:02:27;;;;;;;37.78;30.42;;;23.00;47.80;;;;;;5037111;28;20029;-50
2022/03/20 11:04:54;;;;;;;38.25;28.98;;;22.80;47.60;;;;;;5037042;28;20025;-48
2022/03/20 11:07:21;;;;;;;40.53;31.33;;;22.30;46.90;;;;;;5037195;28;20033;-47
2022/03/20 11:09:53;;;;;;;38.00;30.10;;;21.80;47.20;;;;;;5037232;28;20029;-46
2022/03/20 11:12:41;;;;;;;40.08;29.65;;;21.70;48.30;;;;;;5036703;28;20113;-46
2022/03/20 11:15:08;;;;;;;40.03;30.98;;;21.80;48.90;;;;;;5036959;28;20100;-47
2022/03/20 11:17:43;;;;;;;38.70;31.20;;;22.00;46.90;;;;;;5036990;28;20029;-46
2022/03/20 11:20:15;;;;;;;40.10;29.90;;;21.80;47.40;;;;;;5036657;28;20077;-48
2022/03/20 11:22:53;;;;;;;44.20;30.65;;;21.70;49.00;;;;;;5036729;28;20053;-48
2022/03/20 11:25:24;;;;;;;39.85;29.15;;;21.60;48.30;;;;;;5036665;28;20057;-49
2022/03/20 11:27:56;;;;;;;37.35;28.13;;;21.60;47.70;;;;;;5036468;28;20058;-46
2022/03/20 11:30:27;;;;;;;36.38;27.65;;;21.60;48.00;;;;;;5036746;28;20029;-46
2022/03/20 11:32:56;;;;;;;33.17;23.88;;;21.70;48.10;;;;;;5037398;28;20037;-46
2022/03/20 11:35:32;;;;;;;30.38;22.73;;;21.90;49.00;;;;;;5036552;28;20030;-50
2022/03/20 11:38:15;;;;;;;28.45;21.92;;;22.40;48.20;;;;;;5036720;28;20075;-49
2022/03/20 11:40:41;;;;;;;29.95;21.35;;;23.10;48.40;;;;;;5036866;28;20022;-49
2022/03/20 11:43:19;;;;;;;26.95;18.75;;;23.60;47.00;;;;;;5036864;28;20037;-49
2022/03/20 11:46:21;;;;;;;28.63;21.02;;;23.80;43.50;;;;;;5036967;28;20041;-50
2022/03/20 11:49:15;;;;;;;26.55;20.75;;;23.70;43.60;;;;;;5036655;28;20033;-48
2022/03/20 11:51:54;;;;;;;25.48;18.30;;;23.50;44.40;;;;;;5036585;28;20516;-47
2022/03/20 11:54:20;;;;;;;27.15;19.63;;;23.50;41.30;;;;;;5036862;28;20029;-46
2022/03/20 11:56:48;;;;;;;29.15;21.60;;;23.40;42.20;;;;;;5036984;28;20397;-47
2022/03/20 11:59:45;;;;;;;27.73;21.38;;;23.30;43.70;;;;;;5036840;28;20056;-50
2022/03/20 12:02:16;;;;;;;33.72;24.02;;;23.50;43.80;;;;;;5037155;28;20029;-50
2022/03/20 12:05:09;;;;;;;29.77;22.55;;;23.50;42.20;;;;;;5040531;28;20103;-47
2022/03/20 12:08:05;;;;;;;33.08;24.80;;;23.40;42.90;;;;;;5040805;28;20112;-48
2022/03/20 12:10:44;;;;;;;37.03;28.52;;;23.10;43.30;;;;;;5040319;28;20367;-50
2022/03/20 12:13:16;;;;;;;34.30;27.83;;;23.10;43.60;;;;;;5040322;28;20052;-46
2022/03/20 12:15:44;;;;;;;37.85;27.90;;;23.10;43.40;;;;;;5040472;28;20029;-48
2022/03/20 12:18:11;;;;;;;29.08;23.98;;;23.10;43.10;;;;;;5040218;28;20167;-50
2022/03/20 12:20:49;;;;;;;30.00;22.58;;;23.30;42.40;;;;;;5040011;28;20055;-46
2022/03/20 12:23:39;;;;;;;27.88;19.67;;;23.30;43.30;;;;;;5040331;28;20025;-47
2022/03/20 12:26:24;;;;;;;28.85;22.00;;;23.30;42.60;;;;;;5040117;28;20041;-50
2022/03/20 12:28:50;;;;;;;30.77;23.83;;;23.50;42.20;;;;;;5038754;28;20040;-46
2022/03/20 12:31:26;;;;;;;23.13;17.50;;;23.60;41.10;;;;;;5040045;28;20585;-48
2022/03/20 12:34:18;;;;;;;22.70;16.63;;;23.90;41.00;;;;;;5040386;28;20021;-47
2022/03/20 12:36:43;;;;;;;28.63;19.85;;;23.80;40.30;;;;;;5039821;28;20493;-46
2022/03/20 12:39:10;;;;;;;22.25;17.23;;;23.70;39.00;;;;;;5040028;28;20129;-48
2022/03/20 12:41:37;;;;;;;22.60;17.45;;;23.70;40.70;;;;;;5039806;28;20379;-50
2022/03/20 12:44:07;;;;;;;20.45;14.55;;;23.90;39.50;;;;;;5040009;28;20088;-47
2022/03/20 12:46:37;;;;;;;18.38;14.55;;;23.80;39.00;;;;;;5039984;28;20052;-46
2022/03/20 12:49:04;;;;;;;22.23;14.98;;;23.70;40.60;;;;;;5039512;28;20188;-48
2022/03/20 12:51:32;;;;;;;19.08;14.93;;;23.70;41.10;;;;;;5039630;28;20434;-49
2022/03/20 12:54:04;;;;;;;22.73;14.82;;;23.70;40.40;;;;;;5039971;28;20076;-47
2022/03/20 12:56:32;;;;;;;19.65;14.90;;;23.80;40.60;;;;;;5039716;28;20029;-49
2022/03/20 12:58:58;;;;;;;17.20;13.45;;;23.60;39.20;;;;;;5039717;28;20049;-48
2022/03/20 13:01:26;;;;;;;16.90;13.15;;;23.20;38.90;;;;;;5039661;28;20029;-46
2022/03/20 13:03:51;;;;;;;17.60;13.15;;;22.80;39.30;;;;;;5039260;28;20554;-50
2022/03/20 13:06:17;;;;;;;19.23;13.73;;;22.50;39.60;;;;;;5039378;28;20432;-47
2022/03/20 13:08:47;;;;;;;18.98;13.23;;;22.70;41.50;;;;;;5039352;28;20025;-46
2022/03/20 13:14:05;;;;;;;20.75;13.80;;;22.80;40.80;;;;;;5038985;28;20032;-46
2022/03/20 13:16:34;;;;;;;23.45;16.63;;;23.10;41.10;;;;;;5039196;28;20100;-47